Time;durP1;ratioP1;P1;durP2;ratioP2;P2;SDS_P1;SDS_P2;PMS_P1;PMS_P2;Temp;Humidity;BMP_temperature;BMP_pressure;BME280_temperature;BME280_humidity;BME280_pressure;Samples;Min_cycle;Max_cycle;Signal;HPM_P1;HPM_P2
2021/10/12 00:00:09;;;;;;;70.82;25.88;;;;;;;5.40;96.49;99475.69;5064756;28;20055;-86
2021/10/12 00:02:35;;;;;;;46.33;26.17;;;;;;;5.47;96.84;99472.34;5064851;28;20032;-86
2021/10/12 00:05:00;;;;;;;49.97;26.45;;;;;;;5.51;96.90;99469.75;5063374;28;20044;-86
2021/10/12 00:07:26;;;;;;;48.58;25.60;;;;;;;5.51;96.81;99474.13;5063616;28;20023;-86
2021/10/12 00:09:51;;;;;;;41.47;23.20;;;;;;;5.63;96.49;99475.16;5063578;28;20092;-86
2021/10/12 00:12:16;;;;;;;58.40;25.23;;;;;;;5.51;96.91;99472.38;5063281;28;20240;-86
2021/10/12 00:14:42;;;;;;;46.95;24.90;;;;;;;5.56;97.21;99475.94;5063454;28;20024;-86
2021/10/12 00:17:08;;;;;;;42.45;26.08;;;;;;;5.68;97.00;99472.59;5063434;28;20189;-86
2021/10/12 00:19:33;;;;;;;47.00;25.70;;;;;;;5.76;96.60;99470.97;5064379;28;20024;-86
2021/10/12 00:21:59;;;;;;;45.50;24.90;;;;;;;5.73;96.75;99471.81;5063389;28;20383;-86
2021/10/12 00:24:24;;;;;;;36.17;22.33;;;;;;;5.71;96.89;99467.41;5064409;28;20079;-86
2021/10/12 00:26:50;;;;;;;44.38;25.60;;;;;;;5.68;97.16;99467.38;5064467;28;20027;-86
2021/10/12 00:29:15;;;;;;;46.17;24.25;;;;;;;5.83;96.59;99472.84;5063213;28;20028;-86
2021/10/12 00:31:41;;;;;;;39.92;23.75;;;;;;;5.78;96.28;99458.78;5063175;28;20043;-86
2021/10/12 00:34:06;;;;;;;40.58;22.95;;;;;;;5.87;96.05;99464.19;5064294;28;20025;-86
2021/10/12 00:36:31;;;;;;;42.63;24.88;;;;;;;5.95;95.84;99467.78;5062871;28;20017;-86
2021/10/12 00:38:57;;;;;;;43.78;26.85;;;;;;;5.86;95.73;99467.66;5064108;28;20335;-86
2021/10/12 00:41:23;;;;;;;47.95;26.70;;;;;;;5.90;95.96;99477.28;5064140;28;20220;-87
2021/10/12 00:43:48;;;;;;;45.15;23.88;;;;;;;5.89;96.28;99470.31;5063003;28;20016;-87
2021/10/12 00:46:14;;;;;;;45.15;24.58;;;;;;;5.99;96.52;99451.28;5062960;28;20017;-87
2021/10/12 00:48:39;;;;;;;40.30;24.23;;;;;;;6.01;96.42;99446.94;5062935;28;20017;-87
2021/10/12 00:51:05;;;;;;;41.35;24.27;;;;;;;6.09;96.18;99437.44;5062958;28;20040;-87
2021/10/12 00:53:30;;;;;;;40.08;22.63;;;;;;;6.10;96.01;99432.22;5062934;28;20021;-87
2021/10/12 00:55:57;;;;;;;42.85;24.67;;;;;;;6.19;95.39;99426.22;5062855;28;20017;-87
2021/10/12 00:58:22;;;;;;;48.65;23.77;;;;;;;6.25;95.21;99426.28;5063861;28;20028;-87
2021/10/12 01:00:48;;;;;;;39.38;22.15;;;;;;;6.28;95.23;99421.09;5063009;28;20095;-87
2021/10/12 01:03:13;;;;;;;40.55;23.95;;;;;;;6.10;95.68;99420.88;5070928;23;20048;-86
2021/10/12 01:05:39;;;;;;;40.67;24.40;;;;;;;6.04;96.31;99415.59;5079449;28;20020;-86
2021/10/12 01:08:05;;;;;;;45.42;24.95;;;;;;;6.12;96.13;99419.19;5062498;28;20020;-86
2021/10/12 01:10:31;;;;;;;43.35;25.15;;;;;;;6.23;95.97;99425.38;5062646;28;20021;-86
2021/10/12 01:12:57;;;;;;;44.47;26.05;;;;;;;6.21;96.14;99425.38;5062684;28;20219;-86
2021/10/12 01:15:23;;;;;;;41.13;24.15;;;;;;;6.35;95.94;99422.91;5062671;28;20020;-86
2021/10/12 01:17:48;;;;;;;47.33;25.90;;;;;;;6.39;95.62;99424.69;5062614;28;20316;-86
2021/10/12 01:20:15;;;;;;;39.92;23.60;;;;;;;6.37;95.90;99410.72;5063738;28;20021;-86
2021/10/12 01:22:47;;;;;;;42.13;24.52;;;;;;;6.08;96.08;99397.34;5062556;28;20020;-86
2021/10/12 01:25:15;;;;;;;43.03;24.17;;;;;;;6.08;96.49;99391.28;5062600;28;20021;-86
2021/10/12 01:27:40;;;;;;;43.88;24.23;;;;;;;6.14;96.22;99391.34;5062251;28;20231;-86
2021/10/12 01:30:08;;;;;;;39.35;22.42;;;;;;;6.26;96.28;99396.66;5062350;28;20235;-86
2021/10/12 01:32:38;;;;;;;41.92;22.63;;;;;;;6.29;96.32;99394.09;5062485;28;20062;-86
2021/10/12 01:35:04;;;;;;;42.60;24.75;;;;;;;6.24;96.09;99388.81;5062476;28;20397;-86
2021/10/12 01:37:30;;;;;;;42.05;23.40;;;;;;;6.31;96.28;99389.75;5062465;28;20031;-86
2021/10/12 01:39:56;;;;;;;45.00;24.77;;;;;;;6.34;96.14;99388.06;5062383;28;20216;-86
2021/10/12 01:42:22;;;;;;;46.30;25.35;;;;;;;6.16;96.22;99379.13;5062412;28;20223;-86
2021/10/12 01:44:47;;;;;;;45.72;25.38;;;;;;;6.18;97.16;99377.44;5063478;28;20084;-86
2021/10/12 01:47:13;;;;;;;43.05;24.05;;;;;;;6.29;96.90;99376.66;5062367;28;20029;-86
2021/10/12 01:49:38;;;;;;;43.60;23.52;;;;;;;6.40;96.44;99374.16;5064158;28;20040;-86
2021/10/12 01:52:04;;;;;;;35.90;21.80;;;;;;;6.47;96.61;99375.97;5066168;28;20091;-86
2021/10/12 01:54:29;;;;;;;37.83;21.92;;;;;;;6.48;95.78;99372.47;5066145;28;20028;-86
2021/10/12 01:56:54;;;;;;;41.85;23.40;;;;;;;6.49;95.81;99371.63;5066065;28;20032;-86
2021/10/12 01:59:20;;;;;;;46.03;24.45;;;;;;;6.34;96.48;99355.78;5065933;28;20064;-86
2021/10/12 02:01:46;;;;;;;40.00;22.25;;;;;;;6.45;96.29;99369.81;5065693;28;20135;-86
2021/10/12 02:04:12;;;;;;;39.67;23.13;;;;;;;6.49;96.06;99369.00;5066986;28;20040;-86
2021/10/12 02:06:38;;;;;;;40.90;22.70;;;;;;;6.47;96.25;99371.63;5066069;28;20021;-86
2021/10/12 02:09:04;;;;;;;49.67;23.25;;;;;;;6.49;96.22;99363.78;5065870;28;20021;-86
2021/10/12 02:11:29;;;;;;;41.05;23.05;;;;;;;6.48;96.00;99356.78;5065832;28;20062;-86
2021/10/12 02:13:55;;;;;;;49.90;26.23;;;;;;;6.29;96.36;99347.03;5065792;28;20220;-86
2021/10/12 02:16:21;;;;;;;43.50;22.60;;;;;;;6.32;96.99;99344.44;5066864;28;20056;-86
2021/10/12 02:18:46;;;;;;;39.95;22.70;;;;;;;6.47;96.44;99341.97;5065618;28;20029;-86
2021/10/12 02:21:12;;;;;;;40.47;22.02;;;;;;;6.52;96.31;99340.28;5065654;28;20024;-86
2021/10/12 02:23:37;;;;;;;42.38;23.95;;;;;;;6.51;95.88;99328.94;5066771;28;20031;-86
2021/10/12 02:26:04;;;;;;;41.75;23.40;;;;;;;6.47;96.63;99318.44;5066643;28;20028;-86
2021/10/12 02:28:30;;;;;;;38.95;22.63;;;;;;;6.49;96.68;99319.31;5066654;28;20032;-86
2021/10/12 02:30:55;;;;;;;36.03;21.95;;;;;;;6.51;96.30;99314.97;5065432;28;20025;-86
2021/10/12 02:33:21;;;;;;;43.47;22.77;;;;;;;6.56;96.08;99308.03;5066530;28;20024;-86
2021/10/12 02:35:46;;;;;;;40.88;22.42;;;;;;;6.50;95.92;99308.00;5064975;28;20025;-86
2021/10/12 02:38:12;;;;;;;41.45;22.70;;;;;;;6.51;96.39;99309.72;5065323;28;20096;-86
2021/10/12 02:40:37;;;;;;;40.80;23.58;;;;;;;6.39;96.84;99304.41;5066384;28;20062;-86
2021/10/12 02:43:02;;;;;;;44.45;24.70;;;;;;;6.45;96.85;99309.69;5065226;28;20025;-86
2021/10/12 02:45:28;;;;;;;38.40;22.73;;;;;;;6.51;96.61;99299.28;5065051;28;20021;-86
2021/10/12 02:47:53;;;;;;;35.28;22.55;;;;;;;6.60;96.62;99320.25;5065779;28;20032;-86
2021/10/12 02:50:19;;;;;;;43.35;24.13;;;;;;;6.55;96.55;99311.50;5065833;28;20320;-86
2021/10/12 02:52:44;;;;;;;39.78;23.52;;;;;;;6.62;96.70;99313.31;5065893;28;20048;-86
2021/10/12 02:55:10;;;;;;;37.95;22.05;;;;;;;6.51;96.36;99299.28;5064956;28;20029;-86
2021/10/12 02:57:35;;;;;;;35.65;20.20;;;;;;;6.49;95.79;99290.56;5065566;28;20016;-86
2021/10/12 03:00:05;;;;;;;40.25;23.42;;;;;;;6.31;96.46;99287.81;5064482;28;20327;-86
2021/10/12 03:02:30;;;;;;;41.13;22.05;;;;;;;6.36;96.91;99288.72;5064190;28;20041;-86
2021/10/12 03:04:56;;;;;;;41.25;22.77;;;;;;;6.29;96.74;99274.72;5064573;28;20067;-86
2021/10/12 03:07:22;;;;;;;38.13;22.17;;;;;;;6.28;97.20;99285.16;5065434;28;20020;-86
2021/10/12 03:09:47;;;;;;;36.72;21.52;;;;;;;6.36;97.19;99289.56;5064459;28;20021;-86
2021/10/12 03:12:13;;;;;;;44.17;23.45;;;;;;;6.36;97.06;99284.34;5065500;28;20085;-86
2021/10/12 03:14:39;;;;;;;41.58;23.15;;;;;;;6.39;97.60;99287.00;5064214;28;20471;-86
2021/10/12 03:17:05;;;;;;;40.63;22.30;;;;;;;6.53;97.33;99297.56;5064327;28;20051;-86
2021/10/12 03:19:30;;;;;;;40.80;23.88;;;;;;;6.63;96.92;99299.38;5065150;28;20036;-86
2021/10/12 03:22:13;;;;;;;43.20;24.10;;;;;;;6.70;96.79;99295.91;5064155;28;20079;-86
2021/10/12 03:24:39;;;;;;;42.83;23.35;;;;;;;6.75;96.64;99298.56;5063985;28;20021;-86
2021/10/12 03:27:08;;;;;;;39.05;22.55;;;;;;;6.80;97.42;99302.94;5065270;28;20085;-86
2021/10/12 03:29:33;;;;;;;40.15;22.13;;;;;;;6.91;96.94;99289.94;5063879;28;20020;-86
2021/10/12 03:31:59;;;;;;;40.47;22.80;;;;;;;6.88;96.27;99288.19;5064051;28;20021;-86
2021/10/12 03:34:26;;;;;;;41.88;22.50;;;;;;;6.68;97.25;99286.31;5065018;28;20021;-86
2021/10/12 03:36:52;;;;;;;38.95;22.88;;;;;;;6.72;97.72;99278.50;5064029;28;20044;-86
2021/10/12 03:39:18;;;;;;;40.83;23.48;;;;;;;6.63;97.34;99278.44;5064112;28;20021;-86
2021/10/12 03:41:43;;;;;;;36.78;20.45;;;;;;;6.79;96.91;99284.63;5064085;28;20021;-85
2021/10/12 03:44:08;;;;;;;43.38;22.98;;;;;;;6.78;97.27;99289.00;5064068;28;20215;-85
2021/10/12 03:46:34;;;;;;;36.40;21.88;;;;;;;6.61;97.40;99280.16;5063991;28;20021;-85
2021/10/12 03:48:59;;;;;;;38.38;22.73;;;;;;;6.71;97.75;99281.09;5063515;28;20017;-85
2021/10/12 03:51:24;;;;;;;37.53;21.85;;;;;;;6.71;97.87;99287.22;5064665;28;20028;-85
2021/10/12 03:53:50;;;;;;;40.83;22.20;;;;;;;6.78;97.74;99282.88;5063664;28;20017;-85
2021/10/12 03:56:15;;;;;;;36.63;21.00;;;;;;;6.79;97.41;99290.75;5064561;28;20028;-86
2021/10/12 03:58:41;;;;;;;33.20;19.65;;;;;;;6.82;98.02;99285.53;5063389;28;20029;-86
2021/10/12 04:01:07;;;;;;;41.05;21.58;;;;;;;6.90;97.63;99289.09;5063443;28;20017;-86
2021/10/12 04:03:32;;;;;;;42.53;22.20;;;;;;;6.94;98.10;99295.19;5063174;28;20063;-86
2021/10/12 04:05:57;;;;;;;37.83;21.85;;;;;;;6.96;98.23;99294.31;5062016;28;20041;-86
2021/10/12 04:08:23;;;;;;;34.80;20.60;;;;;;;7.06;98.17;99298.75;5061978;28;20044;-85
2021/10/12 04:10:48;;;;;;;36.97;21.83;;;;;;;7.10;98.24;99297.91;5063266;28;20029;-86
2021/10/12 04:13:14;;;;;;;37.65;22.52;;;;;;;7.12;98.44;99304.00;5061831;28;20025;-85
2021/10/12 04:15:39;;;;;;;36.55;20.88;;;;;;;7.18;98.42;99311.88;5063008;28;20346;-85
2021/10/12 04:18:05;;;;;;;39.13;20.40;;;;;;;7.21;98.32;99306.66;5064576;28;20020;-85
2021/10/12 04:20:32;;;;;;;40.13;19.60;;;;;;;7.16;98.01;99303.19;5063283;28;20032;-85
2021/10/12 04:22:58;;;;;;;33.92;20.05;;;;;;;7.18;98.52;99304.03;5063304;28;20020;-85
2021/10/12 04:25:24;;;;;;;32.67;20.30;;;;;;;7.21;98.15;99314.53;5063275;28;20025;-85
2021/10/12 04:27:52;;;;;;;33.20;19.60;;;;;;;7.23;98.22;99315.41;5063207;28;20024;-85
2021/10/12 04:30:18;;;;;;;38.35;21.40;;;;;;;7.24;98.40;99311.91;5063196;28;20220;-85
2021/10/12 04:32:44;;;;;;;38.78;21.50;;;;;;;7.27;98.31;99311.94;5063145;28;20020;-85
2021/10/12 04:35:09;;;;;;;35.08;21.40;;;;;;;7.10;98.49;99303.13;5063128;28;20161;-85
2021/10/12 04:37:35;;;;;;;35.28;20.13;;;;;;;7.07;98.42;99313.59;5063085;28;20021;-85
2021/10/12 04:40:01;;;;;;;41.75;21.67;;;;;;;7.19;98.46;99308.44;5062969;28;20075;-85
2021/10/12 04:42:26;;;;;;;40.72;21.48;;;;;;;7.18;98.28;99311.88;5063011;28;20025;-85
2021/10/12 04:44:54;;;;;;;38.13;20.42;;;;;;;7.22;98.44;99313.69;5062985;28;20219;-85
2021/10/12 04:47:21;;;;;;;37.40;20.48;;;;;;;7.29;98.79;99319.78;5063013;28;20021;-85
2021/10/12 04:49:47;;;;;;;41.38;21.83;;;;;;;7.33;98.70;99322.44;5062951;28;20017;-85
2021/10/12 04:52:14;;;;;;;33.85;20.13;;;;;;;7.33;98.70;99322.44;5064016;28;20025;-85
2021/10/12 04:54:40;;;;;;;36.85;21.27;;;;;;;7.36;99.08;99314.59;5062881;28;20058;-85
2021/10/12 04:57:05;;;;;;;40.80;21.70;;;;;;;7.37;99.43;99308.47;5062845;28;20020;-85
2021/10/12 04:59:31;;;;;;;39.00;21.00;;;;;;;7.39;99.42;99312.00;5062761;28;20029;-85
2021/10/12 05:01:56;;;;;;;35.35;19.55;;;;;;;7.41;98.98;99319.84;5062601;28;20045;-85
2021/10/12 05:04:22;;;;;;;38.55;21.77;;;;;;;7.33;99.32;99306.72;5062842;28;20055;-85
2021/10/12 05:06:47;;;;;;;38.63;22.02;;;;;;;7.42;99.82;99312.00;5062745;28;20040;-85
2021/10/12 05:09:12;;;;;;;42.85;22.10;;;;;;;7.46;99.65;99307.63;5061655;28;20025;-85
2021/10/12 05:11:38;;;;;;;41.38;20.90;;;;;;;7.55;99.31;99312.91;5062127;28;20212;-85
2021/10/12 05:14:03;;;;;;;39.92;22.13;;;;;;;7.57;99.59;99301.59;5062703;28;20055;-85
2021/10/12 05:16:30;;;;;;;40.80;20.13;;;;;;;7.62;99.80;99305.09;5062663;28;20017;-85
2021/10/12 05:18:58;;;;;;;43.65;21.63;;;;;;;7.64;99.42;99298.13;5063721;28;20100;-85
2021/10/12 05:21:24;;;;;;;37.00;19.92;;;;;;;7.68;99.31;99299.84;5063727;28;20017;-85
2021/10/12 05:23:50;;;;;;;36.03;19.05;;;;;;;7.74;98.83;99299.00;5063313;28;20025;-85
2021/10/12 05:26:16;;;;;;;38.78;21.63;;;;;;;7.71;98.87;99299.88;5066662;28;20051;-85
2021/10/12 05:28:42;;;;;;;37.17;21.70;;;;;;;7.72;99.09;99296.38;5067779;28;20044;-85
2021/10/12 05:31:07;;;;;;;42.08;20.45;;;;;;;7.71;98.72;99281.53;5067713;28;20017;-86
2021/10/12 05:33:33;;;;;;;38.72;20.35;;;;;;;7.80;98.86;99288.53;5066551;28;20043;-86
2021/10/12 05:36:03;;;;;;;37.47;21.42;;;;;;;7.80;98.45;99289.41;5066553;28;20016;-86
2021/10/12 05:38:29;;;;;;;41.90;20.75;;;;;;;7.85;98.34;99277.19;5066365;28;20096;-86
2021/10/12 05:40:54;;;;;;;42.45;20.25;;;;;;;7.87;98.52;99071.03;5066411;28;20307;-86
2021/10/12 05:43:19;;;;;;;46.42;25.02;;;;;;;7.94;98.71;99247.50;5066319;28;20025;-86
2021/10/12 05:45:46;;;;;;;44.85;23.65;;;;;;;7.98;99.05;99237.00;5067438;28;20044;-86
2021/10/12 05:48:12;;;;;;;52.10;24.67;;;;;;;8.05;98.60;99238.78;5067423;28;20138;-86
2021/10/12 05:50:42;;;;;;;47.50;25.25;;;;;;;8.08;99.04;99258.88;5066193;28;20024;-86
2021/10/12 05:58:12;;;;;;;50.42;26.73;;;;;;;8.14;98.86;99257.09;5067254;28;20355;-86
2021/10/12 06:00:38;;;;;;;45.72;24.33;;;;;;;8.20;98.83;99269.38;5067077;28;20063;-86
2021/10/12 06:03:03;;;;;;;50.45;25.42;;;;;;;8.19;98.40;99267.59;5065747;28;20052;-86
2021/10/12 06:05:29;;;;;;;49.83;25.48;;;;;;;8.21;98.92;99258.88;5065914;28;20024;-86
2021/10/12 06:07:54;;;;;;;60.78;28.15;;;;;;;8.29;98.48;99264.16;5065878;28;20017;-86
2021/10/12 06:10:20;;;;;;;56.95;26.42;;;;;;;8.31;98.69;99263.28;5065824;28;20093;-86
2021/10/12 06:12:45;;;;;;;55.95;27.38;;;;;;;8.27;98.85;99265.88;5065768;28;20320;-86
2021/10/12 06:15:11;;;;;;;58.38;26.20;;;;;;;8.27;98.88;99264.16;5065789;28;20020;-86
2021/10/12 06:17:36;;;;;;;55.65;25.77;;;;;;;8.36;99.29;99264.13;5065718;28;20016;-86
2021/10/12 06:20:03;;;;;;;54.63;26.70;;;;;;;8.45;98.69;99256.25;5065601;28;20088;-86
2021/10/12 06:22:28;;;;;;;55.22;28.23;;;;;;;8.41;98.65;99259.75;5066719;28;20025;-86
2021/10/12 06:24:53;;;;;;;80.72;30.85;;;;;;;8.39;98.92;99258.88;5065515;28;20251;-86
2021/10/12 06:27:20;;;;;;;63.22;28.63;;;;;;;8.48;99.04;99250.16;5065565;28;20021;-86
2021/10/12 06:29:46;;;;;;;68.78;29.55;;;;;;;8.56;98.93;99272.88;5065445;28;20017;-86
2021/10/12 06:32:11;;;;;;;55.50;26.70;;;;;;;8.55;98.69;99273.72;5065464;28;20025;-86
2021/10/12 06:34:36;;;;;;;67.60;29.10;;;;;;;8.56;98.45;99286.00;5066094;28;20051;-86
2021/10/12 06:37:02;;;;;;;71.07;30.98;;;;;;;8.57;98.77;99289.47;5065372;28;20055;-86
2021/10/12 06:39:27;;;;;;;68.13;29.08;;;;;;;8.57;98.30;99281.59;5065272;28;20052;-86
2021/10/12 06:41:53;;;;;;;79.40;29.77;;;;;;;8.58;98.00;99278.13;5065243;28;20321;-86
2021/10/12 06:44:18;;;;;;;70.38;31.00;;;;;;;8.57;98.81;99281.59;5065168;28;20029;-86
2021/10/12 06:46:44;;;;;;;65.32;29.63;;;;;;;8.61;98.72;99273.72;5065195;28;20025;-86
2021/10/12 06:49:10;;;;;;;60.03;27.83;;;;;;;8.71;98.29;99275.44;5065104;28;20027;-86
2021/10/12 06:51:35;;;;;;;61.08;26.35;;;;;;;8.77;98.33;99270.19;5065094;28;20048;-86
2021/10/12 06:54:01;;;;;;;70.03;32.08;;;;;;;8.78;98.33;99277.22;5066206;28;20220;-86
2021/10/12 06:56:26;;;;;;;52.83;27.30;;;;;;;8.88;98.64;99277.16;5064980;28;20032;-86
2021/10/12 06:58:52;;;;;;;61.58;27.65;;;;;;;8.94;98.69;99266.66;5064914;28;20032;-86
2021/10/12 07:01:17;;;;;;;53.50;24.95;;;;;;;9.08;98.81;99270.13;5064870;28;20025;-86
2021/10/12 07:03:42;;;;;;;52.70;25.27;;;;;;;9.19;97.98;99263.06;5064611;28;20104;-86
2021/10/12 07:06:08;;;;;;;55.55;25.77;;;;;;;9.25;98.03;99268.28;5065951;28;20035;-86
2021/10/12 07:08:33;;;;;;;58.90;27.77;;;;;;;9.34;97.79;99268.25;5065983;28;20350;-86
2021/10/12 07:10:59;;;;;;;52.78;25.65;;;;;;;9.32;97.85;99254.25;5064701;28;20025;-86
2021/10/12 07:13:28;;;;;;;59.75;27.10;;;;;;;9.34;97.84;99263.00;5064686;28;20048;-86
2021/10/12 07:15:55;;;;;;;58.65;26.58;;;;;;;9.32;97.83;99272.63;5064550;28;20029;-86
2021/10/12 07:18:21;;;;;;;57.50;27.67;;;;;;;9.40;98.28;99273.50;5064571;28;20193;-86
2021/10/12 07:20:46;;;;;;;53.22;25.15;;;;;;;9.46;98.07;99262.97;5064436;28;20071;-86
2021/10/12 07:23:12;;;;;;;52.00;24.55;;;;;;;9.46;98.50;99263.81;5064477;28;20351;-86
2021/10/12 07:25:37;;;;;;;53.92;25.65;;;;;;;9.45;98.74;99269.06;5064432;28;20106;-86
2021/10/12 07:28:03;;;;;;;58.67;28.15;;;;;;;9.43;98.96;99262.97;5065544;28;20024;-86
2021/10/12 07:30:28;;;;;;;69.15;29.17;;;;;;;9.50;99.35;99264.69;5064357;28;20021;-86
2021/10/12 07:32:54;;;;;;;60.45;28.20;;;;;;;9.58;99.52;99252.34;5065424;28;20052;-86
2021/10/12 07:35:19;;;;;;;49.13;25.50;;;;;;;9.62;99.08;99252.34;5064254;28;20021;-86
2021/10/12 07:37:44;;;;;;;44.75;23.10;;;;;;;9.77;98.20;99265.41;5064198;28;20021;-86
2021/10/12 07:40:11;;;;;;;56.83;24.98;;;;;;;9.72;98.44;99267.19;5064094;28;20029;-86
2021/10/12 07:42:37;;;;;;;49.55;23.52;;;;;;;9.82;97.75;99257.47;5064140;28;20131;-86
2021/10/12 07:45:03;;;;;;;46.40;23.48;;;;;;;9.87;97.77;99260.97;5065220;28;20025;-86
2021/10/12 07:47:29;;;;;;;41.67;23.65;;;;;;;9.95;98.26;99256.50;5064294;28;20118;-86
2021/10/12 07:49:54;;;;;;;40.42;23.67;;;;;;;10.06;97.99;99254.69;5065145;28;20035;-86
2021/10/12 07:52:20;;;;;;;50.05;23.45;;;;;;;10.19;98.01;99251.13;5063903;28;20401;-86
2021/10/12 07:54:47;;;;;;;46.03;22.30;;;;;;;10.37;97.01;99243.94;5063878;28;20021;-86
2021/10/12 07:57:16;;;;;;;53.80;22.92;;;;;;;10.54;96.54;99246.41;5064953;28;20268;-86
2021/10/12 07:59:43;;;;;;;41.42;22.48;;;;;;;10.66;96.53;99251.53;5063704;28;20312;-86
2021/10/12 08:02:13;;;;;;;43.20;21.77;;;;;;;10.79;96.47;99232.13;5063504;28;20037;-86
2021/10/12 08:04:40;;;;;;;42.13;20.80;;;;;;;10.92;96.06;99239.00;5063705;28;20323;-86
2021/10/12 08:07:06;;;;;;;39.58;19.55;;;;;;;11.04;94.94;99233.56;5063611;28;20031;-86
2021/10/12 08:09:31;;;;;;;44.13;21.65;;;;;;;11.15;94.52;99238.72;5063579;28;20021;-86
2021/10/12 08:11:57;;;;;;;43.10;21.52;;;;;;;11.25;95.03;99238.59;5063544;28;20028;-86
2021/10/12 08:14:24;;;;;;;44.55;20.13;;;;;;;11.35;94.59;99237.56;5063501;28;20048;-86
2021/10/12 08:16:50;;;;;;;39.92;21.17;;;;;;;11.54;94.77;99235.56;5063460;28;20078;-86
2021/10/12 08:19:15;;;;;;;37.08;18.65;;;;;;;11.88;93.40;99235.13;5063393;28;20025;-86
2021/10/12 08:21:41;;;;;;;38.60;18.63;;;;;;;12.04;92.16;99238.38;5063394;28;20384;-86
2021/10/12 08:24:06;;;;;;;44.25;18.48;;;;;;;11.88;91.75;99227.19;5063375;28;20049;-86
2021/10/12 08:26:32;;;;;;;33.35;18.38;;;;;;;11.60;91.16;99228.44;5063275;28;20091;-86
2021/10/12 08:28:57;;;;;;;38.10;19.02;;;;;;;11.63;91.28;99232.84;5064391;28;20346;-86
2021/10/12 08:31:24;;;;;;;27.73;16.48;;;;;;;11.49;92.29;99222.47;5064381;28;20048;-86
2021/10/12 08:33:50;;;;;;;31.90;16.23;;;;;;;11.55;92.11;99226.78;5063173;28;20020;-86
2021/10/12 08:36:15;;;;;;;35.17;17.30;;;;;;;11.63;90.92;99223.16;5064335;28;20029;-86
2021/10/12 08:38:42;;;;;;;34.25;15.88;;;;;;;11.65;90.99;99223.16;5063026;28;20017;-86
2021/10/12 08:41:08;;;;;;;32.53;14.75;;;;;;;11.71;91.34;99217.78;5064278;28;20036;-86
2021/10/12 08:43:35;;;;;;;35.65;16.02;;;;;;;11.75;91.93;99204.53;5063314;28;20028;-86
2021/10/12 08:46:01;;;;;;;28.83;15.57;;;;;;;11.91;90.12;99213.97;5062952;28;20091;-86
2021/10/12 08:48:27;;;;;;;33.53;15.43;;;;;;;12.07;89.30;99214.56;5062955;28;20366;-86
2021/10/12 08:50:53;;;;;;;37.67;17.30;;;;;;;13.29;86.04;99212.31;5064088;28;20052;-86
2021/10/12 08:53:18;;;;;;;25.40;14.65;;;;;;;13.60;86.09;99224.00;5062940;28;20377;-86
2021/10/12 08:55:44;;;;;;;23.95;12.60;;;;;;;15.47;78.81;99222.69;5064156;28;20219;-86
2021/10/12 08:58:12;;;;;;;25.38;12.95;;;;;;;15.75;77.12;99220.94;5062696;28;20091;-86
2021/10/12 09:00:38;;;;;;;24.58;14.07;;;;;;;15.73;76.52;99221.00;5063912;28;20029;-86
2021/10/12 09:05:56;;;;;;;28.92;13.05;;;;;;;15.01;78.03;99209.84;5064250;28;20021;-86
2021/10/12 09:08:27;;;;;;;30.67;12.80;;;;;;;14.59;78.97;99200.41;5063943;28;20032;-86
2021/10/12 09:10:54;;;;;;;21.27;11.93;;;;;;;14.30;79.07;99202.94;5062718;28;20023;-86
2021/10/12 09:13:19;;;;;;;28.73;12.57;;;;;;;14.24;79.15;99195.16;5062705;28;20067;-86
2021/10/12 09:16:04;;;;;;;35.97;14.98;;;;;;;14.23;79.28;99190.72;5062717;28;20029;-86
2021/10/12 09:18:45;;;;;;;37.20;12.93;;;;;;;14.54;80.00;99186.41;5062618;28;20024;-86
2021/10/12 09:21:16;;;;;;;28.48;14.30;;;;;;;14.30;79.43;99189.69;5062587;28;20096;-86
2021/10/12 09:23:42;;;;;;;33.75;14.98;;;;;;;13.99;79.72;99188.66;5062576;28;20027;-86
2021/10/12 09:26:22;;;;;;;29.23;15.48;;;;;;;13.76;80.62;99188.34;5063703;28;20024;-86
2021/10/12 09:28:47;;;;;;;28.63;14.40;;;;;;;13.86;80.35;99185.44;5062525;28;20028;-86
2021/10/12 09:31:13;;;;;;;27.08;13.85;;;;;;;13.85;82.16;99182.81;5062567;28;20071;-86
2021/10/12 09:33:47;;;;;;;24.48;13.15;;;;;;;13.88;79.95;99178.34;5063655;28;20024;-86
2021/10/12 09:36:30;;;;;;;25.45;12.98;;;;;;;13.61;81.21;99172.81;5062525;28;20029;-86
2021/10/12 09:38:57;;;;;;;30.75;13.10;;;;;;;13.32;82.70;99164.66;5063584;28;20040;-86
2021/10/12 09:41:25;;;;;;;24.50;10.77;;;;;;;13.25;82.57;99168.38;5062435;28;20027;-86
2021/10/12 09:43:50;;;;;;;26.10;12.27;;;;;;;13.12;83.14;99166.84;5063533;28;20028;-86
2021/10/12 09:46:31;;;;;;;22.95;8.75;;;;;;;12.99;81.67;99164.50;5062737;28;20017;-86
2021/10/12 09:49:17;;;;;;;24.38;10.65;;;;;;;12.62;83.52;99166.06;5062410;28;20056;-86
2021/10/12 09:52:13;;;;;;;28.48;10.93;;;;;;;12.80;82.85;99159.56;5062279;28;20025;-86
2021/10/12 09:54:52;;;;;;;23.63;9.77;;;;;;;12.93;84.09;99156.66;5062395;28;20025;-86
2021/10/12 09:57:22;;;;;;;29.92;11.43;;;;;;;12.99;85.51;99156.56;5062333;28;20099;-86
2021/10/12 09:59:49;;;;;;;24.95;12.00;;;;;;;13.05;83.16;99152.91;5062177;28;20024;-86
2021/10/12 10:02:17;;;;;;;31.35;12.52;;;;;;;12.98;84.85;99148.63;5063144;28;20048;-86
2021/10/12 10:04:44;;;;;;;29.10;13.25;;;;;;;12.83;84.64;99148.94;5063289;28;20024;-86
2021/10/12 10:07:31;;;;;;;27.73;11.48;;;;;;;12.95;84.56;99149.53;5062205;28;20312;-86
2021/10/12 10:09:58;;;;;;;24.83;10.50;;;;;;;13.09;83.36;99148.44;5062958;28;20019;-86
2021/10/12 10:12:25;;;;;;;31.38;10.70;;;;;;;12.95;84.32;99143.41;5066971;28;20031;-86
2021/10/12 10:14:51;;;;;;;24.63;10.25;;;;;;;13.01;84.38;99132.75;5065802;28;20020;-86
2021/10/12 10:17:17;;;;;;;26.55;9.52;;;;;;;13.23;84.10;99133.16;5066839;28;20022;-86
2021/10/12 10:19:45;;;;;;;28.15;9.55;;;;;;;13.49;81.42;99138.72;5065632;28;20044;-86
2021/10/12 10:22:47;;;;;;;22.88;9.38;;;;;;;13.61;82.10;99130.50;5066889;28;20025;-86
2021/10/12 10:25:36;;;;;;;24.90;8.73;;;;;;;13.54;80.33;99134.19;5065643;28;20048;-86
2021/10/12 10:28:23;;;;;;;29.92;8.63;;;;;;;13.57;80.96;99118.25;5065594;28;20071;-86
2021/10/12 10:30:53;;;;;;;18.25;7.07;;;;;;;13.50;81.00;99119.28;5065497;28;20040;-86
2021/10/12 10:33:32;;;;;;;20.08;7.32;;;;;;;13.57;81.10;99115.63;5065444;28;20021;-86
2021/10/12 10:36:10;;;;;;;24.27;7.88;;;;;;;13.52;80.80;99122.78;5065450;28;20031;-86
2021/10/12 10:38:42;;;;;;;20.13;7.82;;;;;;;13.52;81.29;99109.56;5065302;28;20051;-86
2021/10/12 10:41:10;;;;;;;25.02;8.60;;;;;;;13.69;81.36;99117.94;5066495;28;20088;-86
2021/10/12 10:44:01;;;;;;;17.15;6.82;;;;;;;13.69;79.79;99107.38;5065270;28;20020;-86
2021/10/12 10:46:32;;;;;;;20.90;7.35;;;;;;;13.80;79.31;99100.06;5066382;28;20025;-86
2021/10/12 10:49:16;;;;;;;25.23;8.20;;;;;;;13.98;79.98;99095.16;5065190;28;20024;-86
2021/10/12 10:52:02;;;;;;;24.73;8.18;;;;;;;14.29;80.31;99092.59;5066307;28;20409;-86
2021/10/12 10:54:36;;;;;;;20.17;7.30;;;;;;;14.29;78.37;99095.25;5066518;28;20260;-86
2021/10/12 10:57:19;;;;;;;27.15;6.93;;;;;;;14.26;76.63;99087.38;5065000;28;20351;-86
2021/10/12 10:59:45;;;;;;;20.63;6.53;;;;;;;14.16;75.46;99083.22;5066150;28;20029;-86
2021/10/12 11:02:26;;;;;;;21.13;7.65;;;;;;;13.87;80.93;99070.75;5064674;28;20049;-86
2021/10/12 11:04:52;;;;;;;26.42;7.03;;;;;;;13.78;83.05;99072.75;5064886;28;20328;-86
2021/10/12 11:07:24;;;;;;;16.02;6.88;;;;;;;13.60;83.32;99070.59;5064871;28;20320;-86
2021/10/12 11:09:50;;;;;;;22.63;7.37;;;;;;;13.87;84.00;99069.88;5064766;28;20016;-86
2021/10/12 11:12:27;;;;;;;22.45;7.05;;;;;;;14.15;80.90;99068.25;5064693;28;20334;-86
2021/10/12 11:14:54;;;;;;;19.48;6.55;;;;;;;14.28;79.21;99056.47;5064699;28;20216;-86
2021/10/12 11:17:20;;;;;;;20.42;5.38;;;;;;;14.37;79.46;99056.22;5064658;28;20243;-86
2021/10/12 11:19:55;;;;;;;13.82;5.30;;;;;;;14.55;77.46;99051.25;5064456;28;20075;-86
2021/10/12 11:22:22;;;;;;;21.33;5.40;;;;;;;14.66;78.22;99048.31;5064456;28;20021;-86
2021/10/12 11:24:48;;;;;;;16.45;4.30;;;;;;;14.79;74.16;99055.84;5081171;28;20016;-86
2021/10/12 11:27:14;;;;;;;30.17;5.32;;;;;;;14.65;76.76;99041.28;5064457;28;20104;-86
2021/10/12 11:29:39;;;;;;;11.40;4.22;;;;;;;14.54;77.13;99033.63;5064412;28;20013;-86
2021/10/12 11:32:05;;;;;;;13.75;4.30;;;;;;;14.52;77.57;99039.88;5065769;28;20067;-86